sensor_id;sensor_type;location;lat;lon;timestamp;P1;durP1;ratioP1;P2;durP2;ratioP2
75554;SDS011;66087;53.126;17.960;2023-09-08T00:00:03;10.10;;;7.00;;
75554;SDS011;66087;53.126;17.960;2023-09-08T00:03:12;12.50;;;8.90;;
75554;SDS011;66087;53.126;17.960;2023-09-08T00:05:41;13.90;;;8.60;;
75554;SDS011;66087;53.126;17.960;2023-09-08T00:08:08;12.50;;;8.00;;
75554;SDS011;66087;53.126;17.960;2023-09-08T00:10:38;13.70;;;8.00;;
75554;SDS011;66087;53.126;17.960;2023-09-08T00:13:06;11.80;;;8.00;;
75554;SDS011;66087;53.126;17.960;2023-09-08T00:15:34;11.80;;;7.80;;
75554;SDS011;66087;53.126;17.960;2023-09-08T00:18:02;10.80;;;7.50;;
75554;SDS011;66087;53.126;17.960;2023-09-08T00:20:28;13.90;;;8.40;;
75554;SDS011;66087;53.126;17.960;2023-09-08T00:22:55;11.10;;;8.40;;
75554;SDS011;66087;53.126;17.960;2023-09-08T00:25:22;11.60;;;8.20;;
75554;SDS011;66087;53.126;17.960;2023-09-08T00:27:50;13.50;;;8.60;;
75554;SDS011;66087;53.126;17.960;2023-09-08T00:30:17;12.70;;;8.70;;
75554;SDS011;66087;53.126;17.960;2023-09-08T00:32:43;12.00;;;8.30;;
75554;SDS011;66087;53.126;17.960;2023-09-08T00:35:14;11.60;;;7.80;;
75554;SDS011;66087;53.126;17.960;2023-09-08T00:37:44;11.30;;;5.20;;
75554;SDS011;66087;53.126;17.960;2023-09-08T00:40:12;12.20;;;8.40;;
75554;SDS011;66087;53.126;17.960;2023-09-08T00:42:59;10.20;;;7.30;;
75554;SDS011;66087;53.126;17.960;2023-09-08T00:45:27;12.80;;;8.80;;
75554;SDS011;66087;53.126;17.960;2023-09-08T00:47:56;10.90;;;6.70;;
75554;SDS011;66087;53.126;17.960;2023-09-08T00:50:23;13.50;;;9.00;;
75554;SDS011;66087;53.126;17.960;2023-09-08T00:52:50;11.90;;;7.90;;
75554;SDS011;66087;53.126;17.960;2023-09-08T00:55:18;9.30;;;7.00;;
75554;SDS011;66087;53.126;17.960;2023-09-08T00:57:45;12.70;;;8.20;;
75554;SDS011;66087;53.126;17.960;2023-09-08T01:00:15;13.00;;;9.00;;
75554;SDS011;66087;53.126;17.960;2023-09-08T01:02:44;10.50;;;7.80;;
75554;SDS011;66087;53.126;17.960;2023-09-08T01:05:11;10.30;;;7.50;;
75554;SDS011;66087;53.126;17.960;2023-09-08T01:07:46;14.50;;;8.70;;
75554;SDS011;66087;53.126;17.960;2023-09-08T01:10:15;12.80;;;8.50;;
75554;SDS011;66087;53.126;17.960;2023-09-08T01:12:42;13.40;;;9.40;;
75554;SDS011;66087;53.126;17.960;2023-09-08T01:15:11;11.80;;;8.70;;
75554;SDS011;66087;53.126;17.960;2023-09-08T01:17:39;12.00;;;8.00;;
75554;SDS011;66087;53.126;17.960;2023-09-08T01:20:21;11.20;;;8.40;;
75554;SDS011;66087;53.126;17.960;2023-09-08T01:22:55;12.40;;;9.20;;
75554;SDS011;66087;53.126;17.960;2023-09-08T01:25:49;11.90;;;7.80;;
75554;SDS011;66087;53.126;17.960;2023-09-08T01:28:29;11.20;;;8.00;;
75554;SDS011;66087;53.126;17.960;2023-09-08T01:30:58;13.70;;;8.50;;
75554;SDS011;66087;53.126;17.960;2023-09-08T01:33:25;12.00;;;7.80;;
75554;SDS011;66087;53.126;17.960;2023-09-08T01:36:00;10.50;;;7.10;;
75554;SDS011;66087;53.126;17.960;2023-09-08T01:38:28;11.80;;;8.10;;
75554;SDS011;66087;53.126;17.960;2023-09-08T01:40:58;14.50;;;8.90;;
75554;SDS011;66087;53.126;17.960;2023-09-08T01:45:58;11.60;;;5.00;;
75554;SDS011;66087;53.126;17.960;2023-09-08T01:48:26;13.50;;;8.10;;
75554;SDS011;66087;53.126;17.960;2023-09-08T01:50:59;12.40;;;9.90;;
75554;SDS011;66087;53.126;17.960;2023-09-08T01:53:39;11.30;;;8.20;;
75554;SDS011;66087;53.126;17.960;2023-09-08T01:56:07;12.50;;;8.40;;
75554;SDS011;66087;53.126;17.960;2023-09-08T01:58:34;12.50;;;8.70;;
75554;SDS011;66087;53.126;17.960;2023-09-08T02:01:02;13.00;;;8.10;;
75554;SDS011;66087;53.126;17.960;2023-09-08T02:03:32;14.50;;;9.50;;
75554;SDS011;66087;53.126;17.960;2023-09-08T02:06:00;14.10;;;8.30;;
75554;SDS011;66087;53.126;17.960;2023-09-08T02:08:27;10.90;;;7.60;;
75554;SDS011;66087;53.126;17.960;2023-09-08T02:10:57;11.20;;;6.90;;
75554;SDS011;66087;53.126;17.960;2023-09-08T02:13:29;11.40;;;7.70;;
75554;SDS011;66087;53.126;17.960;2023-09-08T02:15:59;12.30;;;8.00;;
75554;SDS011;66087;53.126;17.960;2023-09-08T02:18:26;12.60;;;9.30;;
75554;SDS011;66087;53.126;17.960;2023-09-08T02:20:53;12.30;;;8.70;;
75554;SDS011;66087;53.126;17.960;2023-09-08T02:23:24;12.90;;;8.50;;
75554;SDS011;66087;53.126;17.960;2023-09-08T02:25:52;8.60;;;6.10;;
75554;SDS011;66087;53.126;17.960;2023-09-08T02:28:20;12.80;;;7.80;;
75554;SDS011;66087;53.126;17.960;2023-09-08T02:31:06;12.20;;;8.70;;
75554;SDS011;66087;53.126;17.960;2023-09-08T02:33:37;12.40;;;9.80;;
75554;SDS011;66087;53.126;17.960;2023-09-08T02:36:04;14.40;;;10.30;;
75554;SDS011;66087;53.126;17.960;2023-09-08T02:38:33;13.10;;;10.10;;
75554;SDS011;66087;53.126;17.960;2023-09-08T02:41:03;14.00;;;11.00;;
75554;SDS011;66087;53.126;17.960;2023-09-08T02:43:31;18.80;;;12.20;;
75554;SDS011;66087;53.126;17.960;2023-09-08T02:46:18;16.80;;;12.40;;
75554;SDS011;66087;53.126;17.960;2023-09-08T02:48:45;13.00;;;9.70;;
75554;SDS011;66087;53.126;17.960;2023-09-08T02:51:13;15.50;;;10.20;;
75554;SDS011;66087;53.126;17.960;2023-09-08T02:53:40;14.40;;;10.40;;
75554;SDS011;66087;53.126;17.960;2023-09-08T02:56:10;14.30;;;11.10;;
75554;SDS011;66087;53.126;17.960;2023-09-08T02:58:38;12.40;;;9.60;;
75554;SDS011;66087;53.126;17.960;2023-09-08T03:01:13;14.80;;;10.20;;
75554;SDS011;66087;53.126;17.960;2023-09-08T03:03:44;13.40;;;9.70;;
75554;SDS011;66087;53.126;17.960;2023-09-08T03:06:11;13.90;;;8.20;;
75554;SDS011;66087;53.126;17.960;2023-09-08T03:08:41;14.80;;;10.20;;
75554;SDS011;66087;53.126;17.960;2023-09-08T03:11:08;12.30;;;9.20;;
75554;SDS011;66087;53.126;17.960;2023-09-08T03:13:37;14.10;;;9.90;;
75554;SDS011;66087;53.126;17.960;2023-09-08T03:16:05;13.80;;;9.30;;
75554;SDS011;66087;53.126;17.960;2023-09-08T03:18:33;12.30;;;8.40;;
75554;SDS011;66087;53.126;17.960;2023-09-08T03:21:09;12.80;;;9.70;;
75554;SDS011;66087;53.126;17.960;2023-09-08T03:23:40;13.50;;;9.60;;
75554;SDS011;66087;53.126;17.960;2023-09-08T03:26:11;9.50;;;5.70;;
75554;SDS011;66087;53.126;17.960;2023-09-08T03:28:39;13.10;;;8.70;;
75554;SDS011;66087;53.126;17.960;2023-09-08T03:31:11;12.70;;;8.50;;
75554;SDS011;66087;53.126;17.960;2023-09-08T03:33:38;11.90;;;8.90;;
75554;SDS011;66087;53.126;17.960;2023-09-08T03:36:13;12.40;;;9.00;;
75554;SDS011;66087;53.126;17.960;2023-09-08T03:38:40;10.60;;;6.40;;
75554;SDS011;66087;53.126;17.960;2023-09-08T03:41:08;11.20;;;7.70;;
75554;SDS011;66087;53.126;17.960;2023-09-08T03:43:40;15.00;;;9.20;;
75554;SDS011;66087;53.126;17.960;2023-09-08T03:46:08;13.90;;;9.50;;
75554;SDS011;66087;53.126;17.960;2023-09-08T03:48:37;13.80;;;9.30;;
75554;SDS011;66087;53.126;17.960;2023-09-08T03:51:27;11.40;;;6.80;;
75554;SDS011;66087;53.126;17.960;2023-09-08T03:53:55;13.10;;;8.60;;
75554;SDS011;66087;53.126;17.960;2023-09-08T03:56:24;13.60;;;9.20;;
75554;SDS011;66087;53.126;17.960;2023-09-08T03:58:52;10.70;;;7.80;;
75554;SDS011;66087;53.126;17.960;2023-09-08T04:01:19;12.60;;;8.30;;
75554;SDS011;66087;53.126;17.960;2023-09-08T04:04:06;11.90;;;8.30;;
75554;SDS011;66087;53.126;17.960;2023-09-08T04:06:36;15.50;;;7.90;;
75554;SDS011;66087;53.126;17.960;2023-09-08T04:09:04;12.10;;;8.60;;
75554;SDS011;66087;53.126;17.960;2023-09-08T04:11:34;12.40;;;8.20;;
75554;SDS011;66087;53.126;17.960;2023-09-08T04:14:09;11.20;;;7.10;;
75554;SDS011;66087;53.126;17.960;2023-09-08T04:16:36;11.00;;;7.50;;
75554;SDS011;66087;53.126;17.960;2023-09-08T04:19:06;13.40;;;9.70;;
75554;SDS011;66087;53.126;17.960;2023-09-08T04:21:34;16.10;;;9.10;;
75554;SDS011;66087;53.126;17.960;2023-09-08T04:24:37;13.10;;;8.90;;
75554;SDS011;66087;53.126;17.960;2023-09-08T04:27:04;13.40;;;8.40;;
75554;SDS011;66087;53.126;17.960;2023-09-08T04:29:32;16.40;;;9.40;;
75554;SDS011;66087;53.126;17.960;2023-09-08T04:32:00;12.70;;;8.50;;
75554;SDS011;66087;53.126;17.960;2023-09-08T04:34:37;14.60;;;9.80;;
75554;SDS011;66087;53.126;17.960;2023-09-08T04:37:07;14.70;;;9.20;;
75554;SDS011;66087;53.126;17.960;2023-09-08T04:39:35;13.60;;;9.40;;
75554;SDS011;66087;53.126;17.960;2023-09-08T04:42:03;12.70;;;8.60;;
75554;SDS011;66087;53.126;17.960;2023-09-08T04:44:35;13.30;;;8.50;;
75554;SDS011;66087;53.126;17.960;2023-09-08T04:47:03;12.30;;;8.00;;
75554;SDS011;66087;53.126;17.960;2023-09-08T04:49:31;10.60;;;7.60;;
75554;SDS011;66087;53.126;17.960;2023-09-08T04:52:03;13.50;;;8.80;;
75554;SDS011;66087;53.126;17.960;2023-09-08T04:54:31;13.30;;;8.10;;
75554;SDS011;66087;53.126;17.960;2023-09-08T04:57:01;14.80;;;9.00;;
75554;SDS011;66087;53.126;17.960;2023-09-08T04:59:49;12.50;;;8.50;;
75554;SDS011;66087;53.126;17.960;2023-09-08T05:02:16;14.70;;;8.70;;
75554;SDS011;66087;53.126;17.960;2023-09-08T05:04:46;13.30;;;8.20;;
75554;SDS011;66087;53.126;17.960;2023-09-08T05:07:17;13.00;;;8.80;;
75554;SDS011;66087;53.126;17.960;2023-09-08T05:09:45;14.20;;;10.00;;
75554;SDS011;66087;53.126;17.960;2023-09-08T05:12:12;8.70;;;4.80;;
75554;SDS011;66087;53.126;17.960;2023-09-08T05:14:39;13.60;;;8.80;;
75554;SDS011;66087;53.126;17.960;2023-09-08T05:17:10;14.10;;;9.90;;
75554;SDS011;66087;53.126;17.960;2023-09-08T05:19:37;12.80;;;8.50;;
75554;SDS011;66087;53.126;17.960;2023-09-08T05:22:04;15.50;;;9.00;;
75554;SDS011;66087;53.126;17.960;2023-09-08T05:24:34;13.40;;;8.30;;
75554;SDS011;66087;53.126;17.960;2023-09-08T05:27:01;10.60;;;7.70;;
75554;SDS011;66087;53.126;17.960;2023-09-08T05:29:28;13.20;;;8.00;;
75554;SDS011;66087;53.126;17.960;2023-09-08T05:31:55;14.20;;;7.80;;
75554;SDS011;66087;53.126;17.960;2023-09-08T05:34:22;15.40;;;9.20;;
75554;SDS011;66087;53.126;17.960;2023-09-08T05:36:49;13.00;;;8.90;;
75554;SDS011;66087;53.126;17.960;2023-09-08T05:39:36;15.60;;;10.30;;
75554;SDS011;66087;53.126;17.960;2023-09-08T05:42:04;13.30;;;9.70;;
75554;SDS011;66087;53.126;17.960;2023-09-08T05:44:31;18.60;;;10.80;;
75554;SDS011;66087;53.126;17.960;2023-09-08T05:46:58;16.40;;;10.80;;
75554;SDS011;66087;53.126;17.960;2023-09-08T05:49:25;20.10;;;11.60;;
75554;SDS011;66087;53.126;17.960;2023-09-08T05:51:53;18.70;;;12.00;;
75554;SDS011;66087;53.126;17.960;2023-09-08T05:54:20;15.40;;;11.00;;
75554;SDS011;66087;53.126;17.960;2023-09-08T05:56:48;16.20;;;11.20;;
75554;SDS011;66087;53.126;17.960;2023-09-08T05:59:15;17.40;;;11.10;;
75554;SDS011;66087;53.126;17.960;2023-09-08T06:01:41;16.80;;;9.40;;
75554;SDS011;66087;53.126;17.960;2023-09-08T06:04:28;22.90;;;11.30;;
75554;SDS011;66087;53.126;17.960;2023-09-08T06:06:58;12.30;;;7.30;;
75554;SDS011;66087;53.126;17.960;2023-09-08T06:09:26;15.60;;;10.90;;
75554;SDS011;66087;53.126;17.960;2023-09-08T06:11:53;16.60;;;10.10;;
75554;SDS011;66087;53.126;17.960;2023-09-08T06:14:24;18.10;;;12.10;;
75554;SDS011;66087;53.126;17.960;2023-09-08T06:16:53;21.30;;;12.00;;
75554;SDS011;66087;53.126;17.960;2023-09-08T06:19:20;19.20;;;12.90;;
75554;SDS011;66087;53.126;17.960;2023-09-08T06:21:46;20.60;;;12.70;;
75554;SDS011;66087;53.126;17.960;2023-09-08T06:24:14;18.60;;;11.70;;
75554;SDS011;66087;53.126;17.960;2023-09-08T06:26:44;19.00;;;9.60;;
75554;SDS011;66087;53.126;17.960;2023-09-08T06:29:12;17.30;;;10.50;;
75554;SDS011;66087;53.126;17.960;2023-09-08T06:31:40;17.60;;;11.30;;
75554;SDS011;66087;53.126;17.960;2023-09-08T06:34:07;20.10;;;12.40;;
75554;SDS011;66087;53.126;17.960;2023-09-08T06:39:02;17.30;;;11.40;;
75554;SDS011;66087;53.126;17.960;2023-09-08T06:41:30;18.90;;;12.30;;
75554;SDS011;66087;53.126;17.960;2023-09-08T06:43:58;14.30;;;9.50;;
75554;SDS011;66087;53.126;17.960;2023-09-08T06:46:27;19.30;;;12.20;;
75554;SDS011;66087;53.126;17.960;2023-09-08T06:48:54;20.50;;;13.30;;
75554;SDS011;66087;53.126;17.960;2023-09-08T06:51:21;20.90;;;13.20;;
75554;SDS011;66087;53.126;17.960;2023-09-08T06:53:54;23.30;;;13.50;;
75554;SDS011;66087;53.126;17.960;2023-09-08T06:56:40;23.70;;;13.90;;
75554;SDS011;66087;53.126;17.960;2023-09-08T06:59:07;19.70;;;12.30;;
75554;SDS011;66087;53.126;17.960;2023-09-08T07:01:40;21.40;;;11.60;;
75554;SDS011;66087;53.126;17.960;2023-09-08T07:06:33;22.10;;;14.00;;
75554;SDS011;66087;53.126;17.960;2023-09-08T07:09:03;22.70;;;15.40;;
75554;SDS011;66087;53.126;17.960;2023-09-08T07:11:31;20.40;;;13.80;;
75554;SDS011;66087;53.126;17.960;2023-09-08T07:13:59;19.20;;;12.80;;
75554;SDS011;66087;53.126;17.960;2023-09-08T07:16:26;20.00;;;13.20;;
75554;SDS011;66087;53.126;17.960;2023-09-08T07:18:53;20.00;;;13.50;;
75554;SDS011;66087;53.126;17.960;2023-09-08T07:21:20;20.30;;;11.90;;
75554;SDS011;66087;53.126;17.960;2023-09-08T07:23:52;19.10;;;12.20;;
75554;SDS011;66087;53.126;17.960;2023-09-08T07:26:20;18.40;;;9.10;;
75554;SDS011;66087;53.126;17.960;2023-09-08T07:28:47;14.30;;;8.50;;
75554;SDS011;66087;53.126;17.960;2023-09-08T07:31:15;15.00;;;8.10;;
75554;SDS011;66087;53.126;17.960;2023-09-08T07:33:45;19.10;;;9.20;;
75554;SDS011;66087;53.126;17.960;2023-09-08T07:36:32;13.40;;;8.10;;
75554;SDS011;66087;53.126;17.960;2023-09-08T07:38:59;13.30;;;8.80;;
75554;SDS011;66087;53.126;17.960;2023-09-08T07:41:26;13.20;;;8.50;;
75554;SDS011;66087;53.126;17.960;2023-09-08T07:43:52;14.30;;;8.50;;
75554;SDS011;66087;53.126;17.960;2023-09-08T07:46:23;16.30;;;9.80;;
75554;SDS011;66087;53.126;17.960;2023-09-08T07:49:15;12.30;;;7.90;;
75554;SDS011;66087;53.126;17.960;2023-09-08T07:51:43;17.50;;;8.40;;
75554;SDS011;66087;53.126;17.960;2023-09-08T07:54:10;15.80;;;8.60;;
75554;SDS011;66087;53.126;17.960;2023-09-08T07:56:37;16.50;;;9.10;;
75554;SDS011;66087;53.126;17.960;2023-09-08T07:59:08;15.90;;;8.80;;
75554;SDS011;66087;53.126;17.960;2023-09-08T08:01:37;12.20;;;8.40;;
75554;SDS011;66087;53.126;17.960;2023-09-08T08:04:06;13.30;;;8.10;;
75554;SDS011;66087;53.126;17.960;2023-09-08T08:06:35;6.50;;;5.60;;
75554;SDS011;66087;53.126;17.960;2023-09-08T08:09:03;11.50;;;7.20;;
75554;SDS011;66087;53.126;17.960;2023-09-08T08:11:32;9.90;;;7.30;;
75554;SDS011;66087;53.126;17.960;2023-09-08T08:14:01;9.90;;;6.80;;
75554;SDS011;66087;53.126;17.960;2023-09-08T08:16:28;9.40;;;6.00;;
75554;SDS011;66087;53.126;17.960;2023-09-08T08:18:55;10.50;;;6.60;;
75554;SDS011;66087;53.126;17.960;2023-09-08T08:21:22;8.90;;;6.50;;
75554;SDS011;66087;53.126;17.960;2023-09-08T08:24:08;13.30;;;6.70;;
75554;SDS011;66087;53.126;17.960;2023-09-08T08:26:35;8.90;;;6.30;;
75554;SDS011;66087;53.126;17.960;2023-09-08T08:29:02;9.30;;;5.70;;
75554;SDS011;66087;53.126;17.960;2023-09-08T08:31:30;8.00;;;5.70;;
75554;SDS011;66087;53.126;17.960;2023-09-08T08:33:56;9.70;;;5.70;;
75554;SDS011;66087;53.126;17.960;2023-09-08T08:36:23;8.80;;;5.60;;
75554;SDS011;66087;53.126;17.960;2023-09-08T08:38:51;11.20;;;5.70;;
75554;SDS011;66087;53.126;17.960;2023-09-08T08:41:18;8.20;;;6.00;;
75554;SDS011;66087;53.126;17.960;2023-09-08T08:43:45;9.30;;;5.80;;
75554;SDS011;66087;53.126;17.960;2023-09-08T08:46:13;9.80;;;5.80;;
75554;SDS011;66087;53.126;17.960;2023-09-08T08:48:42;9.40;;;6.20;;
75554;SDS011;66087;53.126;17.960;2023-09-08T08:51:31;11.90;;;5.80;;
75554;SDS011;66087;53.126;17.960;2023-09-08T08:53:59;16.00;;;5.90;;
75554;SDS011;66087;53.126;17.960;2023-09-08T08:56:37;7.90;;;5.00;;
75554;SDS011;66087;53.126;17.960;2023-09-08T08:59:35;7.00;;;5.30;;
75554;SDS011;66087;53.126;17.960;2023-09-08T09:02:31;8.80;;;5.60;;
75554;SDS011;66087;53.126;17.960;2023-09-08T09:05:26;8.00;;;5.20;;
75554;SDS011;66087;53.126;17.960;2023-09-08T09:07:59;5.60;;;2.60;;
75554;SDS011;66087;53.126;17.960;2023-09-08T09:11:09;10.50;;;4.90;;
75554;SDS011;66087;53.126;17.960;2023-09-08T09:13:43;7.30;;;4.70;;
75554;SDS011;66087;53.126;17.960;2023-09-08T09:16:30;8.30;;;5.30;;
75554;SDS011;66087;53.126;17.960;2023-09-08T09:22:10;8.40;;;4.90;;
75554;SDS011;66087;53.126;17.960;2023-09-08T09:24:43;7.70;;;4.80;;
75554;SDS011;66087;53.126;17.960;2023-09-08T09:27:30;6.90;;;4.60;;
75554;SDS011;66087;53.126;17.960;2023-09-08T09:30:06;9.40;;;5.00;;
75554;SDS011;66087;53.126;17.960;2023-09-08T09:33:02;7.60;;;4.40;;
75554;SDS011;66087;53.126;17.960;2023-09-08T09:35:39;9.70;;;5.00;;
75554;SDS011;66087;53.126;17.960;2023-09-08T09:38:30;8.80;;;5.00;;
75554;SDS011;66087;53.126;17.960;2023-09-08T09:41:10;9.00;;;4.70;;
75554;SDS011;66087;53.126;17.960;2023-09-08T09:43:56;6.10;;;4.00;;
75554;SDS011;66087;53.126;17.960;2023-09-08T09:46:30;6.70;;;5.30;;
75554;SDS011;66087;53.126;17.960;2023-09-08T09:49:17;10.40;;;5.70;;
75554;SDS011;66087;53.126;17.960;2023-09-08T09:51:58;8.50;;;4.80;;
75554;SDS011;66087;53.126;17.960;2023-09-08T09:54:42;6.50;;;3.80;;
75554;SDS011;66087;53.126;17.960;2023-09-08T09:57:40;8.00;;;4.90;;
75554;SDS011;66087;53.126;17.960;2023-09-08T10:00:13;7.40;;;4.90;;
75554;SDS011;66087;53.126;17.960;2023-09-08T10:02:54;6.60;;;4.10;;
75554;SDS011;66087;53.126;17.960;2023-09-08T10:05:28;8.70;;;4.90;;
75554;SDS011;66087;53.126;17.960;2023-09-08T10:10:56;6.90;;;4.70;;
75554;SDS011;66087;53.126;17.960;2023-09-08T10:13:38;7.00;;;4.40;;
75554;SDS011;66087;53.126;17.960;2023-09-08T10:16:15;8.90;;;5.30;;
75554;SDS011;66087;53.126;17.960;2023-09-08T10:19:03;6.00;;;3.90;;
75554;SDS011;66087;53.126;17.960;2023-09-08T10:21:46;10.10;;;5.20;;
75554;SDS011;66087;53.126;17.960;2023-09-08T10:24:22;7.80;;;4.40;;
75554;SDS011;66087;53.126;17.960;2023-09-08T10:27:08;6.60;;;5.00;;
75554;SDS011;66087;53.126;17.960;2023-09-08T10:29:43;7.10;;;4.20;;
75554;SDS011;66087;53.126;17.960;2023-09-08T10:32:21;7.50;;;4.60;;
75554;SDS011;66087;53.126;17.960;2023-09-08T10:35:03;8.30;;;4.80;;
75554;SDS011;66087;53.126;17.960;2023-09-08T10:37:37;7.80;;;4.80;;
75554;SDS011;66087;53.126;17.960;2023-09-08T10:40:20;8.50;;;4.60;;
75554;SDS011;66087;53.126;17.960;2023-09-08T10:43:06;7.40;;;4.50;;
75554;SDS011;66087;53.126;17.960;2023-09-08T10:45:43;6.50;;;4.10;;
75554;SDS011;66087;53.126;17.960;2023-09-08T10:48:17;7.00;;;4.20;;
75554;SDS011;66087;53.126;17.960;2023-09-08T10:50:58;6.80;;;4.70;;
75554;SDS011;66087;53.126;17.960;2023-09-08T10:53:33;8.00;;;4.40;;
75554;SDS011;66087;53.126;17.960;2023-09-08T10:56:06;6.30;;;4.00;;
75554;SDS011;66087;53.126;17.960;2023-09-08T10:58:55;7.40;;;4.00;;
75554;SDS011;66087;53.126;17.960;2023-09-08T11:01:48;6.80;;;4.10;;
75554;SDS011;66087;53.126;17.960;2023-09-08T11:04:40;7.10;;;4.30;;
75554;SDS011;66087;53.126;17.960;2023-09-08T11:07:14;5.40;;;3.10;;
75554;SDS011;66087;53.126;17.960;2023-09-08T11:10:02;6.10;;;4.00;;
75554;SDS011;66087;53.126;17.960;2023-09-08T11:12:39;7.40;;;4.40;;
75554;SDS011;66087;53.126;17.960;2023-09-08T11:15:29;7.70;;;3.90;;
75554;SDS011;66087;53.126;17.960;2023-09-08T11:18:05;9.60;;;4.00;;
75554;SDS011;66087;53.126;17.960;2023-09-08T11:20:53;7.60;;;4.00;;
75554;SDS011;66087;53.126;17.960;2023-09-08T11:23:35;5.80;;;3.30;;
75554;SDS011;66087;53.126;17.960;2023-09-08T11:26:16;8.50;;;4.70;;
75554;SDS011;66087;53.126;17.960;2023-09-08T11:28:57;8.40;;;3.90;;
75554;SDS011;66087;53.126;17.960;2023-09-08T11:31:37;8.40;;;4.20;;
75554;SDS011;66087;53.126;17.960;2023-09-08T11:34:17;5.70;;;3.50;;
75554;SDS011;66087;53.126;17.960;2023-09-08T11:36:57;7.80;;;4.20;;
75554;SDS011;66087;53.126;17.960;2023-09-08T11:39:37;6.90;;;4.20;;
75554;SDS011;66087;53.126;17.960;2023-09-08T11:42:18;7.50;;;4.10;;
75554;SDS011;66087;53.126;17.960;2023-09-08T11:45:01;7.50;;;3.50;;
75554;SDS011;66087;53.126;17.960;2023-09-08T11:47:41;6.40;;;4.20;;
75554;SDS011;66087;53.126;17.960;2023-09-08T11:50:23;6.00;;;3.40;;
75554;SDS011;66087;53.126;17.960;2023-09-08T11:53:18;8.50;;;4.10;;
75554;SDS011;66087;53.126;17.960;2023-09-08T11:55:54;6.30;;;3.60;;
75554;SDS011;66087;53.126;17.960;2023-09-08T11:58:42;7.20;;;4.50;;
75554;SDS011;66087;53.126;17.960;2023-09-08T12:01:16;7.00;;;4.00;;
75554;SDS011;66087;53.126;17.960;2023-09-08T12:03:56;8.30;;;4.60;;
75554;SDS011;66087;53.126;17.960;2023-09-08T12:06:56;9.50;;;4.60;;
75554;SDS011;66087;53.126;17.960;2023-09-08T12:09:53;6.90;;;3.40;;
75554;SDS011;66087;53.126;17.960;2023-09-08T12:12:34;7.50;;;3.80;;
75554;SDS011;66087;53.126;17.960;2023-09-08T12:18:13;6.10;;;3.80;;
75554;SDS011;66087;53.126;17.960;2023-09-08T12:21:03;7.10;;;3.70;;
75554;SDS011;66087;53.126;17.960;2023-09-08T12:23:48;7.30;;;3.50;;
75554;SDS011;66087;53.126;17.960;2023-09-08T12:26:30;6.20;;;4.10;;
75554;SDS011;66087;53.126;17.960;2023-09-08T12:29:12;6.30;;;4.20;;
75554;SDS011;66087;53.126;17.960;2023-09-08T12:31:54;9.30;;;4.40;;
75554;SDS011;66087;53.126;17.960;2023-09-08T12:34:38;10.30;;;4.10;;
75554;SDS011;66087;53.126;17.960;2023-09-08T12:37:22;8.70;;;4.30;;
75554;SDS011;66087;53.126;17.960;2023-09-08T12:40:04;8.10;;;4.10;;
75554;SDS011;66087;53.126;17.960;2023-09-08T12:42:52;6.70;;;4.00;;
75554;SDS011;66087;53.126;17.960;2023-09-08T12:45:33;11.00;;;4.50;;
75554;SDS011;66087;53.126;17.960;2023-09-08T12:48:14;8.30;;;4.00;;
75554;SDS011;66087;53.126;17.960;2023-09-08T12:50:54;8.00;;;4.20;;
75554;SDS011;66087;53.126;17.960;2023-09-08T12:53:27;5.00;;;3.40;;
75554;SDS011;66087;53.126;17.960;2023-09-08T12:56:23;5.40;;;3.70;;
75554;SDS011;66087;53.126;17.960;2023-09-08T12:59:18;6.70;;;4.30;;
75554;SDS011;66087;53.126;17.960;2023-09-08T13:01:51;6.00;;;3.80;;
75554;SDS011;66087;53.126;17.960;2023-09-08T13:04:39;6.30;;;3.80;;
75554;SDS011;66087;53.126;17.960;2023-09-08T13:07:14;7.80;;;4.50;;
75554;SDS011;66087;53.126;17.960;2023-09-08T13:09:56;7.80;;;4.90;;
75554;SDS011;66087;53.126;17.960;2023-09-08T13:12:41;9.00;;;5.20;;
75554;SDS011;66087;53.126;17.960;2023-09-08T13:15:22;9.10;;;5.70;;
75554;SDS011;66087;53.126;17.960;2023-09-08T13:18:11;7.90;;;5.70;;
75554;SDS011;66087;53.126;17.960;2023-09-08T13:21:06;8.70;;;5.70;;
75554;SDS011;66087;53.126;17.960;2023-09-08T13:24:02;9.00;;;5.70;;
75554;SDS011;66087;53.126;17.960;2023-09-08T13:27:00;7.00;;;5.30;;
75554;SDS011;66087;53.126;17.960;2023-09-08T13:29:33;7.30;;;4.90;;
75554;SDS011;66087;53.126;17.960;2023-09-08T13:32:22;8.30;;;5.70;;
75554;SDS011;66087;53.126;17.960;2023-09-08T13:34:57;6.90;;;5.20;;
75554;SDS011;66087;53.126;17.960;2023-09-08T13:37:44;7.10;;;5.40;;
75554;SDS011;66087;53.126;17.960;2023-09-08T13:40:37;7.20;;;5.10;;
75554;SDS011;66087;53.126;17.960;2023-09-08T13:43:13;5.60;;;4.60;;
75554;SDS011;66087;53.126;17.960;2023-09-08T13:45:59;6.80;;;5.20;;
75554;SDS011;66087;53.126;17.960;2023-09-08T13:48:33;8.30;;;4.90;;
75554;SDS011;66087;53.126;17.960;2023-09-08T13:51:07;7.60;;;5.10;;
75554;SDS011;66087;53.126;17.960;2023-09-08T13:53:47;11.00;;;4.30;;
75554;SDS011;66087;53.126;17.960;2023-09-08T13:56:27;7.80;;;5.20;;
75554;SDS011;66087;53.126;17.960;2023-09-08T13:59:00;5.60;;;4.80;;
75554;SDS011;66087;53.126;17.960;2023-09-08T14:01:41;6.60;;;5.40;;
75554;SDS011;66087;53.126;17.960;2023-09-08T14:04:14;8.40;;;5.10;;
75554;SDS011;66087;53.126;17.960;2023-09-08T14:06:47;9.50;;;5.20;;
75554;SDS011;66087;53.126;17.960;2023-09-08T14:09:27;8.70;;;5.10;;
75554;SDS011;66087;53.126;17.960;2023-09-08T14:12:02;6.70;;;5.60;;
75554;SDS011;66087;53.126;17.960;2023-09-08T14:14:35;8.10;;;5.30;;
75554;SDS011;66087;53.126;17.960;2023-09-08T14:17:16;8.50;;;5.80;;
75554;SDS011;66087;53.126;17.960;2023-09-08T14:19:53;8.50;;;6.30;;
75554;SDS011;66087;53.126;17.960;2023-09-08T14:22:26;6.40;;;5.40;;
75554;SDS011;66087;53.126;17.960;2023-09-08T14:25:06;7.10;;;5.10;;
75554;SDS011;66087;53.126;17.960;2023-09-08T14:27:47;6.70;;;5.50;;
75554;SDS011;66087;53.126;17.960;2023-09-08T14:33:07;7.80;;;5.40;;
75554;SDS011;66087;53.126;17.960;2023-09-08T14:35:58;6.70;;;5.10;;
75554;SDS011;66087;53.126;17.960;2023-09-08T14:38:33;6.50;;;5.30;;
75554;SDS011;66087;53.126;17.960;2023-09-08T14:41:20;6.30;;;5.40;;
75554;SDS011;66087;53.126;17.960;2023-09-08T14:44:00;8.10;;;6.10;;
75554;SDS011;66087;53.126;17.960;2023-09-08T14:46:44;8.40;;;6.10;;
75554;SDS011;66087;53.126;17.960;2023-09-08T14:49:25;3.70;;;3.40;;
75554;SDS011;66087;53.126;17.960;2023-09-08T14:51:58;8.10;;;5.90;;
75554;SDS011;66087;53.126;17.960;2023-09-08T14:54:46;7.80;;;5.40;;
75554;SDS011;66087;53.126;17.960;2023-09-08T14:57:26;7.40;;;5.90;;
75554;SDS011;66087;53.126;17.960;2023-09-08T15:00:07;6.90;;;5.10;;
75554;SDS011;66087;53.126;17.960;2023-09-08T15:03:01;6.40;;;5.60;;
75554;SDS011;66087;53.126;17.960;2023-09-08T15:05:37;7.80;;;5.20;;
75554;SDS011;66087;53.126;17.960;2023-09-08T15:08:17;5.90;;;5.10;;
75554;SDS011;66087;53.126;17.960;2023-09-08T15:10:50;8.10;;;6.10;;
75554;SDS011;66087;53.126;17.960;2023-09-08T15:13:23;6.70;;;5.90;;
75554;SDS011;66087;53.126;17.960;2023-09-08T15:16:10;7.50;;;5.40;;
75554;SDS011;66087;53.126;17.960;2023-09-08T15:18:45;6.50;;;4.90;;
75554;SDS011;66087;53.126;17.960;2023-09-08T15:21:33;8.70;;;5.60;;
75554;SDS011;66087;53.126;17.960;2023-09-08T15:24:07;6.90;;;5.50;;
75554;SDS011;66087;53.126;17.960;2023-09-08T15:26:54;5.30;;;4.80;;
75554;SDS011;66087;53.126;17.960;2023-09-08T15:29:29;7.00;;;5.50;;